Time;durP1;ratioP1;P1;durP2;ratioP2;P2;SDS_P1;SDS_P2;PMS_P1;PMS_P2;Temp;Humidity;BMP_temperature;BMP_pressure;BME280_temperature;BME280_humidity;BME280_pressure;Samples;Min_cycle;Max_cycle;Signal;HPM_P1;HPM_P2
2021/04/25 00:00:26;;;;;;;7.82;2.90;;;6.80;89.40;;;;;;5032288;28;20187;-77
2021/04/25 00:02:53;;;;;;;10.70;2.70;;;6.80;89.00;;;;;;5031579;28;20313;-77
2021/04/25 00:05:20;;;;;;;6.30;3.22;;;6.80;89.40;;;;;;5042796;28;20208;-77
2021/04/25 00:07:47;;;;;;;6.28;3.65;;;6.70;89.90;;;;;;5050080;28;20235;-77
2021/04/25 00:10:16;;;;;;;9.90;3.30;;;6.70;90.10;;;;;;5045981;28;20189;-76
2021/04/25 00:12:43;;;;;;;4.78;4.03;;;6.70;90.40;;;;;;5031693;28;20255;-76
2021/04/25 00:15:18;;;;;;;3.58;2.78;;;6.60;90.50;;;;;;5032155;28;20275;-75
2021/04/25 00:17:44;;;;;;;7.47;3.17;;;6.60;90.60;;;;;;5031333;28;20224;-77
2021/04/25 00:20:12;;;;;;;7.57;3.20;;;6.60;90.40;;;;;;5031986;28;20528;-80
2021/04/25 00:22:40;;;;;;;6.30;2.30;;;6.60;90.60;;;;;;5031628;28;20220;-75
2021/04/25 00:25:07;;;;;;;4.95;2.90;;;6.60;90.70;;;;;;5031750;28;20707;-75
2021/04/25 00:27:35;;;;;;;6.13;2.90;;;6.60;90.50;;;;;;5031862;28;20686;-75
2021/04/25 00:30:01;;;;;;;5.70;2.40;;;6.60;90.80;;;;;;5031995;28;20181;-75
2021/04/25 00:32:28;;;;;;;4.93;2.70;;;6.50;90.80;;;;;;5031647;28;20235;-76
2021/04/25 00:34:54;;;;;;;4.50;3.05;;;6.60;90.80;;;;;;5030584;28;20185;-76
2021/04/25 00:37:21;;;;;;;6.20;3.05;;;6.50;91.00;;;;;;5031339;28;20221;-75
2021/04/25 00:39:47;;;;;;;3.67;2.45;;;6.40;91.20;;;;;;5033174;28;20302;-77
2021/04/25 00:42:15;;;;;;;4.57;3.35;;;6.40;91.20;;;;;;5051300;28;20220;-75
2021/04/25 00:44:44;;;;;;;7.40;3.42;;;6.40;91.40;;;;;;5050597;28;20254;-77
2021/04/25 00:47:11;;;;;;;3.85;2.53;;;6.40;91.40;;;;;;5049480;28;20224;-75
2021/04/25 00:49:38;;;;;;;5.53;2.90;;;6.30;92.10;;;;;;5048159;28;20197;-75
2021/04/25 00:52:06;;;;;;;8.02;2.97;;;6.30;91.60;;;;;;5030131;28;20303;-76
2021/04/25 00:54:33;;;;;;;7.53;3.10;;;6.30;91.40;;;;;;5031592;28;20559;-75
2021/04/25 00:57:00;;;;;;;4.13;2.60;;;6.10;91.70;;;;;;5030809;28;20228;-75
2021/04/25 00:59:27;;;;;;;5.53;3.10;;;6.00;92.10;;;;;;5031665;28;20570;-76
2021/04/25 01:01:54;;;;;;;7.47;2.42;;;6.00;92.10;;;;;;5030795;28;20216;-75
2021/04/25 01:04:21;;;;;;;4.00;2.78;;;5.90;92.50;;;;;;5032034;28;20268;-75
2021/04/25 01:06:48;;;;;;;5.68;3.35;;;5.80;92.70;;;;;;5030700;28;20231;-75
2021/04/25 01:09:14;;;;;;;6.05;2.97;;;5.70;93.20;;;;;;5014112;28;20284;-75
2021/04/25 01:11:41;;;;;;;6.65;3.05;;;5.80;93.30;;;;;;5047893;28;20637;-75
2021/04/25 01:14:11;;;;;;;6.65;3.50;;;5.80;93.20;;;;;;5049752;28;20654;-74
2021/04/25 01:16:37;;;;;;;9.90;3.05;;;5.70;93.10;;;;;;5053197;28;20581;-74
2021/04/25 01:19:04;;;;;;;6.15;3.20;;;5.70;93.50;;;;;;5052656;28;20280;-77
2021/04/25 01:21:30;;;;;;;3.88;3.20;;;5.70;93.50;;;;;;5034217;28;20238;-75
2021/04/25 01:23:57;;;;;;;7.40;3.08;;;5.60;93.60;;;;;;5035464;28;20181;-76
2021/04/25 01:26:24;;;;;;;5.60;3.47;;;5.60;94.40;;;;;;5035925;28;20208;-77
2021/04/25 01:28:51;;;;;;;9.23;3.63;;;5.50;94.10;;;;;;5055267;28;20172;-78
2021/04/25 01:31:18;;;;;;;5.43;3.00;;;5.50;94.20;;;;;;5054755;28;20268;-76
2021/04/25 01:33:44;;;;;;;8.60;3.58;;;5.50;94.20;;;;;;5053221;28;20561;-76
2021/04/25 01:36:12;;;;;;;6.32;3.42;;;5.50;94.20;;;;;;5053935;28;20201;-75
2021/04/25 01:38:38;;;;;;;7.28;3.40;;;5.50;94.10;;;;;;5055545;28;20235;-74
2021/04/25 01:41:05;;;;;;;9.85;3.70;;;5.50;94.20;;;;;;5052754;28;20289;-75
2021/04/25 01:43:31;;;;;;;8.63;4.00;;;5.50;94.20;;;;;;5053036;28;20291;-75
2021/04/25 01:45:58;;;;;;;7.13;3.60;;;5.50;94.20;;;;;;5053390;28;20312;-75
2021/04/25 01:48:25;;;;;;;10.55;4.10;;;5.40;94.20;;;;;;5054433;28;20578;-75
2021/04/25 01:50:52;;;;;;;8.05;4.60;;;5.30;94.40;;;;;;5042617;28;20189;-75
2021/04/25 01:53:18;;;;;;;6.85;3.60;;;5.40;94.40;;;;;;5035247;28;20221;-75
2021/04/25 01:55:45;;;;;;;6.63;3.63;;;5.40;94.60;;;;;;5033172;28;20217;-75
2021/04/25 01:58:12;;;;;;;8.30;3.97;;;5.30;94.90;;;;;;5033406;28;20228;-75
2021/04/25 02:00:41;;;;;;;5.80;4.15;;;5.30;95.50;;;;;;5034970;28;20181;-75
2021/04/25 02:03:09;;;;;;;8.43;3.95;;;5.30;95.10;;;;;;5034038;28;20217;-76
2021/04/25 02:05:36;;;;;;;6.57;3.72;;;5.30;95.30;;;;;;5033284;28;20661;-74
2021/04/25 02:08:05;;;;;;;9.02;3.70;;;5.20;95.70;;;;;;5032820;28;20232;-76
2021/04/25 02:10:32;;;;;;;9.02;4.53;;;5.20;96.00;;;;;;5033419;28;20203;-74
2021/04/25 02:12:58;;;;;;;10.15;3.92;;;5.20;96.10;;;;;;5032930;28;20221;-74
2021/04/25 02:15:25;;;;;;;8.13;3.60;;;5.20;96.30;;;;;;5033252;28;20574;-76
2021/04/25 02:17:52;;;;;;;8.73;4.13;;;5.10;96.30;;;;;;5033801;28;20617;-75
2021/04/25 02:20:22;;;;;;;6.55;4.55;;;5.10;96.10;;;;;;5034391;28;20243;-76
2021/04/25 02:22:51;;;;;;;7.18;4.72;;;5.10;95.80;;;;;;5048375;28;20231;-75
2021/04/25 02:25:18;;;;;;;7.07;4.13;;;5.10;95.90;;;;;;5046981;28;20213;-74
2021/04/25 02:27:46;;;;;;;7.90;4.15;;;5.10;96.00;;;;;;5031205;28;20225;-76
2021/04/25 02:30:18;;;;;;;9.15;4.13;;;5.00;95.90;;;;;;5033920;28;20228;-75
2021/04/25 02:32:47;;;;;;;6.88;3.72;;;5.00;96.00;;;;;;5033389;28;20282;-76
2021/04/25 02:35:15;;;;;;;8.05;4.53;;;5.00;95.90;;;;;;5046944;28;20216;-75
2021/04/25 02:37:42;;;;;;;7.65;4.50;;;4.90;96.00;;;;;;5052912;28;20314;-75
2021/04/25 02:40:11;;;;;;;7.70;4.43;;;4.80;96.50;;;;;;5048577;28;20555;-75
2021/04/25 02:42:38;;;;;;;7.70;4.35;;;4.80;96.70;;;;;;5032182;28;20224;-76
2021/04/25 02:45:06;;;;;;;7.20;4.35;;;4.70;96.80;;;;;;5033680;28;20268;-75
2021/04/25 02:47:33;;;;;;;9.60;4.32;;;4.70;96.80;;;;;;5032911;28;20248;-74
2021/04/25 02:50:00;;;;;;;10.70;4.50;;;4.70;97.10;;;;;;5033992;28;20200;-74
2021/04/25 02:52:26;;;;;;;14.57;4.75;;;4.70;97.70;;;;;;5032953;28;20221;-75
2021/04/25 02:54:53;;;;;;;7.88;4.60;;;4.60;98.40;;;;;;5036664;28;20260;-75
2021/04/25 02:57:21;;;;;;;5.45;4.03;;;4.60;98.60;;;;;;5053045;28;20290;-75
2021/04/25 02:59:48;;;;;;;10.88;5.03;;;4.60;98.70;;;;;;5052263;28;20260;-75
2021/04/25 03:02:14;;;;;;;7.30;4.07;;;4.60;98.70;;;;;;5052071;28;20223;-75
2021/04/25 03:04:41;;;;;;;8.35;7.07;;;4.50;99.20;;;;;;5052633;28;20192;-75
2021/04/25 03:07:07;;;;;;;8.57;4.45;;;4.50;99.40;;;;;;5053087;28;20226;-75
2021/04/25 03:09:33;;;;;;;8.65;4.75;;;4.50;99.70;;;;;;5053080;28;20520;-75
2021/04/25 03:12:00;;;;;;;8.82;4.90;;;4.50;99.90;;;;;;5034427;28;20231;-75
2021/04/25 03:14:27;;;;;;;13.57;4.43;;;4.60;99.90;;;;;;5033136;28;20247;-74
2021/04/25 03:16:53;;;;;;;11.55;4.85;;;4.60;99.90;;;;;;5031832;28;20748;-74
2021/04/25 03:19:20;;;;;;;15.75;6.10;;;4.60;99.90;;;;;;5033365;28;20251;-75
2021/04/25 03:21:46;;;;;;;9.80;5.50;;;4.60;99.90;;;;;;5034874;28;20682;-75
2021/04/25 03:24:13;;;;;;;12.35;5.93;;;4.60;99.90;;;;;;5033251;28;20235;-75
2021/04/25 03:26:39;;;;;;;10.90;5.10;;;4.60;99.90;;;;;;5045514;28;20316;-75
2021/04/25 03:29:07;;;;;;;9.18;5.07;;;4.60;99.90;;;;;;5034147;28;20647;-75
2021/04/25 03:31:33;;;;;;;11.95;4.88;;;4.60;99.90;;;;;;5033986;28;20674;-74
2021/04/25 03:34:00;;;;;;;7.10;5.13;;;4.60;99.90;;;;;;5044787;28;20757;-74
2021/04/25 03:36:27;;;;;;;12.02;4.43;;;4.50;99.50;;;;;;5031289;28;20197;-76
2021/04/25 03:38:53;;;;;;;6.57;4.80;;;4.50;99.40;;;;;;5032706;28;20268;-75
2021/04/25 03:41:20;;;;;;;9.38;4.53;;;4.40;99.90;;;;;;5046392;28;20554;-75
2021/04/25 03:43:46;;;;;;;7.13;4.90;;;4.40;99.90;;;;;;5051621;28;20298;-74
2021/04/25 03:46:13;;;;;;;9.38;5.05;;;4.30;99.80;;;;;;5052611;28;20196;-74
2021/04/25 03:48:40;;;;;;;8.18;5.05;;;4.20;99.90;;;;;;5051575;28;20200;-75
2021/04/25 03:51:07;;;;;;;10.68;6.05;;;4.20;99.90;;;;;;5050941;28;20283;-75
2021/04/25 03:53:33;;;;;;;8.48;5.30;;;4.20;99.90;;;;;;5052192;28;20239;-74
2021/04/25 03:55:59;;;;;;;9.80;5.93;;;4.20;99.90;;;;;;5050729;28;20285;-75
2021/04/25 03:58:26;;;;;;;7.90;4.60;;;4.20;99.90;;;;;;5052069;28;20220;-75
2021/04/25 04:00:52;;;;;;;12.10;5.97;;;4.20;99.90;;;;;;5052464;28;20189;-75
2021/04/25 04:03:21;;;;;;;12.57;6.00;;;4.20;99.90;;;;;;5048911;28;20228;-77
2021/04/25 04:05:47;;;;;;;8.77;4.90;;;4.20;99.90;;;;;;5032502;28;20201;-75
2021/04/25 04:08:14;;;;;;;9.32;4.50;;;4.20;99.90;;;;;;5030671;28;20247;-75
2021/04/25 04:10:40;;;;;;;8.55;5.15;;;4.20;99.90;;;;;;5041103;28;20223;-75
2021/04/25 04:13:07;;;;;;;9.32;5.30;;;4.10;99.90;;;;;;5050414;28;20212;-75
2021/04/25 04:15:34;;;;;;;9.30;5.43;;;4.10;99.90;;;;;;5050803;28;20240;-74
2021/04/25 04:18:00;;;;;;;9.85;5.45;;;4.10;99.90;;;;;;5049241;28;20220;-74
2021/04/25 04:20:26;;;;;;;8.20;5.20;;;4.10;99.90;;;;;;5052207;28;20280;-75
2021/04/25 04:22:53;;;;;;;11.70;5.57;;;4.10;99.90;;;;;;5047187;28;20595;-74
2021/04/25 04:25:20;;;;;;;13.48;5.57;;;4.10;99.90;;;;;;5032102;28;20237;-74
2021/04/25 04:27:46;;;;;;;9.52;5.65;;;4.10;99.90;;;;;;5032990;28;20224;-75
2021/04/25 04:30:13;;;;;;;12.75;5.32;;;4.00;99.90;;;;;;5034574;28;20272;-75
2021/04/25 04:32:40;;;;;;;11.98;5.57;;;3.90;99.90;;;;;;5033796;28;20232;-75
2021/04/25 04:35:07;;;;;;;11.85;6.00;;;3.90;99.90;;;;;;5033703;28;20185;-75
2021/04/25 04:37:34;;;;;;;11.80;5.70;;;3.90;99.90;;;;;;5031571;28;20311;-75
2021/04/25 04:40:00;;;;;;;10.23;5.38;;;3.90;99.90;;;;;;5036836;28;20632;-75
2021/04/25 04:42:26;;;;;;;10.23;6.32;;;3.90;99.90;;;;;;5053551;28;20311;-75
2021/04/25 04:44:53;;;;;;;9.35;5.22;;;3.80;99.90;;;;;;5051260;28;20658;-75
2021/04/25 04:47:20;;;;;;;10.18;5.82;;;3.80;99.90;;;;;;5050847;28;20232;-75
2021/04/25 04:49:49;;;;;;;10.32;5.85;;;3.80;99.90;;;;;;5042418;28;20615;-75
2021/04/25 04:52:15;;;;;;;9.32;5.80;;;3.80;99.90;;;;;;5031210;28;20216;-75
2021/04/25 04:54:42;;;;;;;11.27;5.95;;;3.80;99.90;;;;;;5040011;28;20195;-75
2021/04/25 04:57:09;;;;;;;8.48;5.20;;;3.80;99.90;;;;;;5030920;28;20224;-74
2021/04/25 04:59:35;;;;;;;12.45;7.38;;;3.90;99.90;;;;;;5014138;28;20212;-75
2021/04/25 05:02:02;;;;;;;11.52;7.38;;;3.90;99.90;;;;;;5059166;28;20247;-75
2021/04/25 05:04:28;;;;;;;9.07;5.05;;;3.90;99.90;;;;;;5047225;28;20189;-75
2021/04/25 05:06:58;;;;;;;10.85;6.35;;;4.00;99.90;;;;;;5044390;28;20216;-76
2021/04/25 05:09:25;;;;;;;11.85;6.32;;;4.00;99.90;;;;;;5037878;28;20193;-75
2021/04/25 05:11:52;;;;;;;14.60;7.03;;;4.10;99.90;;;;;;5049136;28;20593;-75
2021/04/25 05:14:21;;;;;;;8.38;6.30;;;4.10;99.90;;;;;;5050508;28;20208;-76
2021/04/25 05:16:48;;;;;;;12.88;6.70;;;4.20;99.90;;;;;;5049350;28;20244;-75
2021/04/25 05:19:15;;;;;;;12.07;5.70;;;4.20;99.90;;;;;;5049185;28;20185;-76
2021/04/25 05:21:42;;;;;;;11.55;6.80;;;4.30;99.90;;;;;;5049140;28;20305;-75
2021/04/25 05:24:10;;;;;;;16.17;7.25;;;4.40;99.90;;;;;;5051897;28;20258;-77
2021/04/25 05:26:37;;;;;;;13.60;6.40;;;4.60;99.90;;;;;;5032300;28;20224;-76
2021/04/25 05:29:05;;;;;;;11.55;5.47;;;4.90;99.90;;;;;;5050121;28;20192;-75
2021/04/25 05:31:32;;;;;;;10.18;6.90;;;5.10;99.90;;;;;;5049543;28;20559;-77
2021/04/25 05:33:58;;;;;;;13.30;6.82;;;5.40;99.90;;;;;;5049972;28;20185;-77
2021/04/25 05:36:25;;;;;;;13.75;6.35;;;5.70;99.90;;;;;;5031245;28;20240;-76
2021/04/25 05:38:52;;;;;;;14.48;7.07;;;6.20;99.90;;;;;;5042465;28;20220;-75
2021/04/25 05:41:19;;;;;;;11.20;6.35;;;6.70;99.90;;;;;;5030692;28;20629;-75
2021/04/25 05:43:47;;;;;;;14.63;8.07;;;6.80;98.70;;;;;;5031573;28;20272;-74
2021/04/25 05:46:15;;;;;;;13.57;6.40;;;6.80;98.70;;;;;;5031425;28;20255;-79
2021/04/25 05:48:45;;;;;;;11.50;6.57;;;6.70;99.90;;;;;;5030654;28;20245;-74
2021/04/25 05:51:12;;;;;;;12.05;6.93;;;6.70;99.70;;;;;;5042019;28;20210;-77
2021/04/25 05:53:39;;;;;;;14.35;6.65;;;6.60;99.90;;;;;;5031513;28;20264;-75
2021/04/25 05:56:05;;;;;;;12.27;6.60;;;6.50;99.90;;;;;;5037448;28;20216;-76
2021/04/25 05:58:32;;;;;;;12.95;7.15;;;6.50;99.90;;;;;;5050492;28;20270;-75
2021/04/25 06:00:59;;;;;;;13.23;7.93;;;6.50;99.90;;;;;;5049865;28;20227;-76
2021/04/25 06:03:27;;;;;;;13.38;6.90;;;6.50;99.90;;;;;;5051520;28;20216;-74
2021/04/25 06:05:54;;;;;;;15.70;6.90;;;6.50;99.90;;;;;;5054360;28;20200;-75
2021/04/25 06:08:20;;;;;;;16.25;7.85;;;6.50;99.90;;;;;;5052428;28;20270;-76
2021/04/25 06:10:47;;;;;;;13.32;7.28;;;6.50;99.90;;;;;;5048782;28;20197;-75
2021/04/25 06:13:14;;;;;;;12.68;7.82;;;6.60;99.90;;;;;;5032773;28;20221;-77
2021/04/25 06:15:41;;;;;;;16.92;8.40;;;6.60;99.90;;;;;;5034408;28;20201;-74
2021/04/25 06:18:07;;;;;;;10.70;7.60;;;6.70;99.90;;;;;;5032592;28;20228;-76
2021/04/25 06:20:34;;;;;;;17.75;8.05;;;6.80;99.90;;;;;;5034516;28;20235;-77
2021/04/25 06:23:00;;;;;;;14.32;8.35;;;6.80;99.90;;;;;;5033642;28;20316;-77
2021/04/25 06:25:27;;;;;;;14.80;7.57;;;6.90;99.90;;;;;;5040299;28;20266;-76
2021/04/25 06:27:53;;;;;;;12.13;7.90;;;7.10;99.90;;;;;;5053452;28;20727;-78
2021/04/25 06:30:20;;;;;;;15.45;9.00;;;7.20;99.90;;;;;;5053874;28;20195;-78
2021/04/25 06:32:47;;;;;;;14.18;9.02;;;7.20;99.90;;;;;;5035666;28;20243;-76
2021/04/25 06:35:15;;;;;;;14.90;9.73;;;7.20;99.70;;;;;;5043824;28;20216;-77
2021/04/25 06:37:44;;;;;;;20.58;8.57;;;7.30;99.90;;;;;;5033055;28;20227;-76
2021/04/25 06:40:12;;;;;;;12.43;7.50;;;7.20;99.70;;;;;;5037182;28;20613;-73
2021/04/25 06:42:39;;;;;;;13.23;9.27;;;7.30;99.80;;;;;;5051764;28;20254;-76
2021/04/25 06:45:26;;;;;;;13.05;8.25;;;7.40;99.80;;;;;;5035777;28;20220;-75
2021/04/25 06:47:55;;;;;;;13.18;6.75;;;7.40;99.90;;;;;;5047558;28;20569;-77
2021/04/25 06:50:22;;;;;;;13.20;7.85;;;7.40;99.40;;;;;;5032291;28;20189;-76
2021/04/25 06:52:49;;;;;;;11.57;8.30;;;7.50;99.10;;;;;;5032314;28;20583;-80
2021/04/25 06:55:19;;;;;;;11.63;8.23;;;7.50;98.00;;;;;;5034066;28;20206;-75
2021/04/25 06:57:48;;;;;;;14.25;7.82;;;7.50;97.80;;;;;;5032203;28;20220;-74
2021/04/25 07:00:17;;;;;;;13.02;7.82;;;7.50;97.80;;;;;;5034095;28;20213;-76
2021/04/25 07:02:44;;;;;;;11.05;7.07;;;7.60;97.20;;;;;;5032454;28;20228;-78
2021/04/25 07:05:11;;;;;;;10.02;7.50;;;7.60;95.80;;;;;;5047019;28;20590;-74
2021/04/25 07:07:38;;;;;;;12.82;7.90;;;7.60;95.80;;;;;;5051763;28;20251;-77
2021/04/25 07:10:06;;;;;;;11.77;8.45;;;7.60;95.50;;;;;;5051137;28;20238;-77
2021/04/25 07:12:33;;;;;;;11.25;7.45;;;7.70;95.00;;;;;;5052860;28;20303;-77
2021/04/25 07:14:59;;;;;;;11.93;8.25;;;7.70;94.70;;;;;;5052520;28;20177;-79
2021/04/25 07:17:26;;;;;;;14.48;9.13;;;7.70;94.50;;;;;;5035110;28;20220;-76
2021/04/25 07:19:53;;;;;;;14.32;9.55;;;7.70;91.90;;;;;;5050960;28;20200;-75
2021/04/25 07:22:20;;;;;;;15.05;9.40;;;7.70;92.60;;;;;;5051476;28;20298;-75
2021/04/25 07:24:49;;;;;;;14.93;9.70;;;7.70;94.40;;;;;;5050783;28;20650;-75
2021/04/25 07:27:19;;;;;;;14.23;11.10;;;7.70;94.10;;;;;;5034613;28;20220;-76
2021/04/25 07:29:51;;;;;;;11.90;9.02;;;7.70;93.40;;;;;;5051754;28;20192;-78
2021/04/25 07:32:17;;;;;;;12.07;9.48;;;7.60;92.50;;;;;;5051165;28;20216;-75
2021/04/25 07:34:45;;;;;;;13.45;12.02;;;7.60;92.50;;;;;;5051529;28;20189;-77
2021/04/25 07:37:12;;;;;;;13.82;10.52;;;7.60;92.50;;;;;;5052539;28;20248;-75
2021/04/25 07:39:39;;;;;;;19.38;10.48;;;7.60;92.70;;;;;;5050027;28;20650;-75
2021/04/25 07:42:06;;;;;;;13.40;9.55;;;7.60;91.40;;;;;;5033144;28;20610;-77
2021/04/25 07:44:33;;;;;;;14.18;9.85;;;7.60;93.10;;;;;;5047997;28;20603;-75
2021/04/25 07:47:00;;;;;;;17.75;10.20;;;7.60;92.10;;;;;;5031737;28;20656;-75
2021/04/25 07:49:26;;;;;;;17.02;11.23;;;7.60;90.60;;;;;;5032612;28;20671;-77
2021/04/25 07:51:53;;;;;;;13.52;10.88;;;7.70;90.00;;;;;;5030726;28;20706;-75
2021/04/25 07:54:19;;;;;;;20.05;11.63;;;7.70;90.60;;;;;;5031564;28;20193;-77
2021/04/25 07:56:47;;;;;;;14.95;12.05;;;7.80;90.70;;;;;;5030748;28;20213;-76
2021/04/25 07:59:13;;;;;;;16.95;12.98;;;7.80;90.80;;;;;;5032893;28;20239;-75
2021/04/25 08:01:40;;;;;;;16.98;13.35;;;7.80;87.80;;;;;;5030471;28;20263;-78
2021/04/25 08:04:06;;;;;;;18.55;13.05;;;7.80;88.00;;;;;;5032560;28;20185;-78
2021/04/25 08:06:33;;;;;;;20.48;12.98;;;7.80;90.10;;;;;;5030733;28;20244;-78
2021/04/25 08:09:00;;;;;;;15.05;12.90;;;7.80;89.10;;;;;;5032621;28;20271;-78
2021/04/25 08:11:26;;;;;;;16.25;14.23;;;7.90;88.20;;;;;;5031022;28;20223;-77
2021/04/25 08:13:52;;;;;;;18.77;13.20;;;8.00;90.80;;;;;;5031020;28;20618;-78
2021/04/25 08:16:22;;;;;;;16.33;13.48;;;8.00;88.90;;;;;;5032030;28;20198;-77
2021/04/25 08:18:51;;;;;;;13.75;12.35;;;8.10;88.60;;;;;;5032169;28;20193;-77
2021/04/25 08:21:19;;;;;;;19.02;13.55;;;8.10;87.20;;;;;;5047747;28;20188;-78
2021/04/25 08:23:45;;;;;;;18.15;12.63;;;8.10;86.50;;;;;;5051872;28;20181;-78
2021/04/25 08:26:15;;;;;;;16.33;13.40;;;8.20;86.20;;;;;;5049727;28;20223;-76
2021/04/25 08:28:42;;;;;;;19.67;14.70;;;8.20;85.30;;;;;;5062299;28;20230;-77
2021/04/25 08:31:10;;;;;;;15.27;13.15;;;8.30;82.80;;;;;;5071225;28;20180;-80
2021/04/25 08:33:39;;;;;;;14.30;12.32;;;8.40;83.80;;;;;;5046139;28;20204;-78
2021/04/25 08:36:06;;;;;;;17.35;13.40;;;8.50;85.10;;;;;;5051643;28;20200;-80
2021/04/25 08:38:33;;;;;;;16.45;10.30;;;8.70;77.40;;;;;;5045290;28;20260;-77
2021/04/25 08:41:03;;;;;;;15.18;11.55;;;8.80;76.30;;;;;;5041990;28;20204;-77
2021/04/25 08:43:31;;;;;;;13.32;10.80;;;8.80;75.70;;;;;;5051035;28;20241;-78
2021/04/25 08:45:59;;;;;;;11.18;9.95;;;9.00;75.40;;;;;;5050153;28;20216;-78
2021/04/25 08:48:28;;;;;;;12.25;10.35;;;9.10;74.90;;;;;;5051070;28;20632;-77
2021/04/25 08:50:56;;;;;;;12.27;10.35;;;9.30;74.50;;;;;;5047545;28;20651;-79
2021/04/25 08:53:23;;;;;;;12.10;9.20;;;9.50;74.70;;;;;;5051345;28;20228;-77
2021/04/25 08:55:50;;;;;;;10.37;9.30;;;9.70;72.80;;;;;;5050685;28;20566;-77
2021/04/25 08:58:18;;;;;;;13.10;9.73;;;10.10;70.50;;;;;;5047874;28;20473;-78
2021/04/25 09:00:45;;;;;;;11.73;9.00;;;10.60;69.40;;;;;;5051988;28;20423;-80
2021/04/25 09:03:13;;;;;;;9.97;8.37;;;11.00;63.80;;;;;;5046076;28;20485;-80
2021/04/25 09:05:39;;;;;;;12.50;9.77;;;11.40;63.70;;;;;;5030477;28;20473;-80
2021/04/25 09:08:07;;;;;;;9.20;8.00;;;12.00;60.50;;;;;;5029838;28;20478;-79
2021/04/25 09:10:41;;;;;;;11.10;9.37;;;12.10;61.50;;;;;;5039300;28;20762;-79
2021/04/25 09:13:18;;;;;;;10.03;9.10;;;12.10;58.90;;;;;;5051073;28;20513;-79
2021/04/25 09:15:45;;;;;;;9.63;8.63;;;12.20;58.10;;;;;;5051723;28;20446;-80
2021/04/25 09:18:12;;;;;;;10.83;8.17;;;12.10;60.10;;;;;;5044735;28;20506;-80
2021/04/25 09:21:04;;;;;;;8.30;7.60;;;12.20;58.90;;;;;;5031464;28;20516;-78
2021/04/25 09:23:31;;;;;;;8.50;7.43;;;12.40;56.70;;;;;;5023380;28;20469;-80
2021/04/25 09:26:00;;;;;;;9.63;7.87;;;12.70;54.60;;;;;;5037259;28;20461;-79
2021/04/25 09:28:30;;;;;;;9.87;7.90;;;13.10;56.70;;;;;;5029128;28;20500;-78
2021/04/25 09:31:10;;;;;;;8.10;6.90;;;13.20;54.90;;;;;;5016930;28;20953;-78
2021/04/25 09:33:55;;;;;;;9.07;7.07;;;13.10;56.50;;;;;;5029637;28;20429;-78
2021/04/25 09:36:28;;;;;;;8.10;7.30;;;13.00;54.60;;;;;;5040029;28;20860;-77
2021/04/25 09:39:09;;;;;;;12.07;7.77;;;12.80;55.90;;;;;;5048168;28;20452;-79
2021/04/25 09:41:36;;;;;;;9.83;7.33;;;12.60;59.10;;;;;;5046992;28;20541;-78
2021/04/25 09:44:04;;;;;;;8.83;7.20;;;12.60;56.90;;;;;;5045498;28;20467;-79
2021/04/25 09:46:51;;;;;;;9.60;7.30;;;12.50;57.80;;;;;;5045546;28;20840;-78
2021/04/25 09:49:45;;;;;;;9.70;7.90;;;12.50;58.40;;;;;;5033921;28;20873;-81
2021/04/25 09:52:37;;;;;;;11.23;7.87;;;12.60;56.00;;;;;;5032998;28;20473;-79
2021/04/25 09:55:23;;;;;;;8.10;7.30;;;12.70;57.00;;;;;;5034893;28;20442;-78
2021/04/25 09:57:52;;;;;;;9.23;7.83;;;12.80;57.20;;;;;;5034054;28;20554;-80
2021/04/25 10:00:21;;;;;;;8.70;7.80;;;12.70;57.10;;;;;;5034401;28;20443;-78
2021/04/25 10:03:06;;;;;;;8.93;7.40;;;12.80;57.80;;;;;;5051287;28;20510;-78
2021/04/25 10:06:05;;;;;;;10.93;7.30;;;12.90;57.50;;;;;;5041963;28;20451;-81
2021/04/25 10:08:36;;;;;;;12.00;8.00;;;13.10;56.40;;;;;;5033209;28;20475;-77
2021/04/25 10:11:06;;;;;;;8.47;7.30;;;13.30;53.60;;;;;;5037317;28;20455;-76
2021/04/25 10:13:37;;;;;;;9.27;7.83;;;13.40;55.10;;;;;;5045358;28;20470;-77
2021/04/25 10:16:03;;;;;;;12.37;9.20;;;13.40;53.80;;;;;;5054404;28;20439;-82
2021/04/25 10:18:30;;;;;;;12.30;9.10;;;13.30;57.60;;;;;;5048907;28;20460;-78
2021/04/25 10:21:03;;;;;;;12.87;11.67;;;13.30;55.60;;;;;;5033910;28;20452;-77
2021/04/25 10:23:32;;;;;;;10.90;9.83;;;13.20;55.60;;;;;;5034019;28;20453;-77
2021/04/25 10:25:59;;;;;;;11.57;10.43;;;13.20;53.60;;;;;;5034489;28;20932;-77
2021/04/25 10:28:37;;;;;;;10.43;8.03;;;13.20;53.20;;;;;;5033836;28;20572;-79
2021/04/25 10:31:11;;;;;;;11.60;8.37;;;13.30;53.70;;;;;;5016471;28;20479;-79
2021/04/25 10:33:58;;;;;;;11.80;10.03;;;13.30;53.50;;;;;;5043044;28;20542;-78
2021/04/25 10:36:55;;;;;;;11.10;8.43;;;13.20;52.10;;;;;;5046973;28;20938;-79
2021/04/25 10:39:55;;;;;;;9.77;8.50;;;13.10;55.40;;;;;;5032976;28;20416;-80
2021/04/25 10:42:28;;;;;;;9.70;8.20;;;13.30;57.60;;;;;;5052393;28;20459;-78
2021/04/25 10:45:02;;;;;;;11.40;9.07;;;13.30;57.60;;;;;;5052463;28;20442;-79
2021/04/25 10:47:36;;;;;;;13.17;10.20;;;13.30;58.40;;;;;;5050047;28;20996;-77
2021/04/25 10:50:10;;;;;;;10.83;9.77;;;13.30;56.80;;;;;;5033265;28;20928;-81
2021/04/25 10:52:37;;;;;;;12.20;9.40;;;13.30;54.00;;;;;;5032264;28;20452;-75
2021/04/25 10:55:14;;;;;;;10.93;9.47;;;13.30;57.20;;;;;;5035757;28;20431;-81
2021/04/25 10:58:07;;;;;;;11.57;10.43;;;13.50;53.90;;;;;;5051813;28;20513;-76
2021/04/25 11:00:34;;;;;;;12.80;9.57;;;13.70;53.40;;;;;;5033923;28;20484;-77
2021/04/25 11:03:08;;;;;;;13.90;10.03;;;13.70;55.60;;;;;;5033041;28;20467;-79
2021/04/25 11:05:38;;;;;;;10.43;9.43;;;13.70;56.00;;;;;;5031944;28;20977;-79
2021/04/25 11:08:06;;;;;;;10.60;9.60;;;13.80;58.10;;;;;;5039739;28;20474;-77
2021/04/25 11:10:54;;;;;;;11.90;9.20;;;13.90;54.40;;;;;;5050463;28;20534;-76
2021/04/25 11:13:44;;;;;;;9.67;8.73;;;13.90;51.70;;;;;;5034013;28;20452;-77
2021/04/25 11:16:14;;;;;;;13.80;10.10;;;13.80;53.50;;;;;;5033408;28;20443;-78
2021/04/25 11:19:06;;;;;;;13.93;9.40;;;13.80;55.70;;;;;;5031844;28;20486;-79
2021/04/25 11:21:36;;;;;;;10.47;9.40;;;13.80;53.30;;;;;;5032567;28;20547;-79
2021/04/25 11:26:42;;;;;;;11.23;10.13;;;13.80;52.70;;;;;;4994078;28;20964;-77
2021/04/25 11:29:16;;;;;;;13.97;10.63;;;13.80;51.80;;;;;;4992521;28;20467;-77
2021/04/25 11:31:46;;;;;;;12.70;11.50;;;13.80;55.90;;;;;;5000582;28;20473;-77
2021/04/25 11:34:25;;;;;;;10.90;9.80;;;13.90;54.70;;;;;;5009450;28;20440;-77
2021/04/25 11:36:56;;;;;;;12.70;11.37;;;13.90;54.50;;;;;;5027716;28;20487;-77
2021/04/25 11:39:33;;;;;;;11.23;10.23;;;13.90;54.30;;;;;;5012041;28;20433;-77
2021/04/25 11:42:02;;;;;;;12.20;10.90;;;13.90;52.10;;;;;;5012366;28;20532;-77
2021/04/25 11:44:34;;;;;;;12.47;10.40;;;14.00;55.80;;;;;;5002807;28;20888;-77
2021/04/25 11:47:06;;;;;;;14.70;10.13;;;14.10;54.50;;;;;;4991434;28;20967;-78
2021/04/25 11:49:34;;;;;;;14.43;10.07;;;14.10;52.50;;;;;;4993065;28;20445;-77
2021/04/25 11:52:20;;;;;;;11.87;10.67;;;14.10;47.80;;;;;;4991754;28;20519;-77
2021/04/25 11:55:04;;;;;;;11.70;10.50;;;13.90;52.00;;;;;;4994536;28;20472;-77
2021/04/25 11:57:33;;;;;;;13.80;10.73;;;13.80;53.10;;;;;;5012089;28;20994;-77
2021/04/25 12:00:12;;;;;;;12.63;10.57;;;14.00;53.10;;;;;;5010969;28;21064;-77
2021/04/25 12:02:52;;;;;;;11.90;10.70;;;14.10;51.10;;;;;;5010219;28;20553;-77
2021/04/25 12:05:27;;;;;;;11.40;10.30;;;14.20;51.70;;;;;;5012532;28;20464;-77
2021/04/25 12:08:01;;;;;;;11.13;10.00;;;14.30;50.60;;;;;;5012045;28;20477;-77
2021/04/25 12:10:47;;;;;;;13.20;10.27;;;14.30;50.90;;;;;;5011807;28;20469;-76
2021/04/25 12:13:25;;;;;;;13.50;10.17;;;14.40;51.20;;;;;;5011683;28;20473;-77
2021/04/25 12:16:02;;;;;;;13.10;10.60;;;14.40;54.00;;;;;;5010957;28;20441;-77
2021/04/25 12:18:32;;;;;;;12.07;10.10;;;14.20;55.50;;;;;;5010973;28;20507;-78
2021/04/25 12:21:04;;;;;;;10.93;9.83;;;14.20;52.30;;;;;;5012007;28;20535;-77
2021/04/25 12:23:39;;;;;;;9.97;8.93;;;14.20;51.80;;;;;;5026466;28;20672;-77
2021/04/25 12:26:10;;;;;;;10.33;9.43;;;14.20;48.70;;;;;;5010938;28;20566;-76
2021/04/25 12:28:43;;;;;;;11.57;10.43;;;14.20;56.30;;;;;;5011765;28;20491;-77
2021/04/25 12:31:14;;;;;;;12.90;11.70;;;14.10;52.80;;;;;;5012448;28;20511;-78
2021/04/25 12:33:44;;;;;;;11.57;10.40;;;13.90;50.20;;;;;;4985927;28;20581;-77
2021/04/25 12:36:15;;;;;;;14.27;10.10;;;13.80;50.00;;;;;;5002826;28;20476;-77
2021/04/25 12:38:59;;;;;;;9.70;8.80;;;13.90;51.90;;;;;;4991986;28;20477;-77
2021/04/25 12:41:36;;;;;;;12.30;10.50;;;13.90;53.30;;;;;;5008694;28;20473;-77
2021/04/25 12:44:06;;;;;;;11.10;9.47;;;14.00;52.40;;;;;;5012060;28;20425;-77
2021/04/25 12:46:32;;;;;;;15.27;9.83;;;14.10;53.30;;;;;;5011544;28;22607;-77
2021/04/25 12:49:09;;;;;;;12.40;10.10;;;14.20;52.10;;;;;;5022882;28;21006;-77
2021/04/25 12:51:41;;;;;;;10.73;9.20;;;14.40;51.70;;;;;;5011603;28;20812;-77
2021/04/25 12:54:10;;;;;;;9.80;8.60;;;14.40;51.20;;;;;;5010866;28;20434;-77
2021/04/25 12:56:44;;;;;;;11.13;9.97;;;14.50;48.50;;;;;;5009608;28;20494;-77
2021/04/25 12:59:33;;;;;;;10.27;9.07;;;14.60;50.60;;;;;;5010888;28;20428;-77